Time;durP1;ratioP1;P1;durP2;ratioP2;P2;SDS_P1;SDS_P2;PMS_P1;PMS_P2;Temp;Humidity;BMP_temperature;BMP_pressure;BME280_temperature;BME280_humidity;BME280_pressure;Samples;Min_cycle;Max_cycle;Signal;HPM_P1;HPM_P2
2023/07/09 00:02:24;;;;;;;14.23;7.32;;;20.60;99.90;;;;;;5071373;28;20020;-59
2023/07/09 00:04:50;;;;;;;12.57;7.45;;;20.60;99.90;;;;;;5071334;28;20115;-58
2023/07/09 00:07:25;;;;;;;14.93;6.93;;;20.60;99.90;;;;;;5071272;28;20044;-59
2023/07/09 00:09:51;;;;;;;18.60;6.93;;;20.60;99.90;;;;;;5071114;28;20103;-59
2023/07/09 00:12:18;;;;;;;11.73;6.55;;;20.50;99.90;;;;;;5071331;28;20104;-59
2023/07/09 00:14:44;;;;;;;13.70;7.00;;;20.50;99.90;;;;;;5071169;28;20036;-56
2023/07/09 00:17:11;;;;;;;11.43;6.93;;;20.50;99.90;;;;;;5071369;28;20025;-56
2023/07/09 00:19:38;;;;;;;14.65;6.97;;;20.50;99.90;;;;;;5070953;28;20017;-60
2023/07/09 00:22:13;;;;;;;12.48;6.47;;;20.40;99.90;;;;;;5071354;28;20025;-57
2023/07/09 00:24:38;;;;;;;13.77;7.10;;;20.40;99.90;;;;;;5070912;28;20028;-59
2023/07/09 00:27:08;;;;;;;13.98;7.10;;;20.40;99.90;;;;;;5071125;28;20017;-59
2023/07/09 00:29:34;;;;;;;12.32;6.72;;;20.40;99.90;;;;;;5070775;28;20025;-60
2023/07/09 00:31:59;;;;;;;13.93;7.68;;;20.40;99.90;;;;;;5071754;28;20025;-61
2023/07/09 00:34:25;;;;;;;14.23;6.30;;;20.30;99.90;;;;;;5074850;28;20093;-58
2023/07/09 00:36:51;;;;;;;14.48;7.45;;;20.30;99.90;;;;;;5074953;28;20165;-57
2023/07/09 00:39:18;;;;;;;14.95;7.13;;;20.30;99.90;;;;;;5074724;28;20483;-59
2023/07/09 00:41:45;;;;;;;14.90;7.15;;;20.30;99.90;;;;;;5074734;28;20040;-60
2023/07/09 00:44:31;;;;;;;16.08;6.10;;;20.30;99.90;;;;;;5074666;28;20565;-60
2023/07/09 00:47:02;;;;;;;15.85;7.20;;;20.30;99.90;;;;;;5074753;28;20025;-58
2023/07/09 00:49:46;;;;;;;13.60;7.20;;;20.20;99.90;;;;;;5074471;28;20027;-59
2023/07/09 00:52:35;;;;;;;11.90;6.63;;;20.20;99.90;;;;;;5075002;28;20028;-58
2023/07/09 00:55:05;;;;;;;12.77;6.72;;;20.10;99.90;;;;;;5074449;28;20497;-60
2023/07/09 00:57:31;;;;;;;11.27;6.47;;;20.10;99.90;;;;;;5074330;28;20037;-60
2023/07/09 01:00:09;;;;;;;13.57;6.60;;;20.10;99.90;;;;;;5074325;28;20024;-58
2023/07/09 01:02:39;;;;;;;14.13;7.32;;;20.00;99.90;;;;;;5074433;28;20363;-59
2023/07/09 01:05:06;;;;;;;14.85;6.90;;;20.00;99.90;;;;;;5073995;28;20142;-58
2023/07/09 01:07:32;;;;;;;22.60;6.97;;;20.00;99.90;;;;;;5074076;28;20108;-61
2023/07/09 01:09:58;;;;;;;13.90;6.53;;;19.90;99.90;;;;;;5074133;28;20029;-58
2023/07/09 01:12:24;;;;;;;12.77;7.63;;;19.90;99.90;;;;;;5074317;28;20078;-56
2023/07/09 01:14:52;;;;;;;17.90;7.40;;;19.90;99.90;;;;;;5074075;28;20059;-60
2023/07/09 01:17:19;;;;;;;19.60;7.40;;;19.90;99.90;;;;;;5074212;28;20040;-60
2023/07/09 01:19:49;;;;;;;14.98;7.53;;;19.80;99.90;;;;;;5073843;28;20093;-53
2023/07/09 01:22:19;;;;;;;16.05;6.25;;;19.80;99.90;;;;;;5074058;28;20103;-61
2023/07/09 01:25:05;;;;;;;16.77;7.22;;;19.80;99.90;;;;;;5073864;28;20082;-60
2023/07/09 01:27:43;;;;;;;14.02;7.07;;;19.80;99.90;;;;;;5073822;28;20040;-59
2023/07/09 01:30:35;;;;;;;13.82;8.20;;;19.70;99.90;;;;;;5073764;28;20048;-56
2023/07/09 01:33:01;;;;;;;14.65;7.30;;;19.70;99.90;;;;;;5073519;28;20039;-57
2023/07/09 01:35:29;;;;;;;20.13;6.93;;;19.70;99.90;;;;;;5073783;28;20028;-55
2023/07/09 01:37:56;;;;;;;15.57;7.43;;;19.60;99.90;;;;;;5073542;28;20016;-55
2023/07/09 01:40:23;;;;;;;14.30;7.30;;;19.60;99.90;;;;;;5073681;28;20055;-56
2023/07/09 01:42:50;;;;;;;12.48;7.18;;;19.60;99.90;;;;;;5073347;28;20037;-58
2023/07/09 01:45:16;;;;;;;18.13;8.30;;;19.50;99.90;;;;;;5071271;28;20024;-58
2023/07/09 01:47:43;;;;;;;10.48;6.70;;;19.50;99.90;;;;;;5073456;28;20134;-61
2023/07/09 01:50:09;;;;;;;13.43;7.05;;;19.50;99.90;;;;;;5073382;28;20027;-58
2023/07/09 01:52:37;;;;;;;15.45;7.60;;;19.60;99.90;;;;;;5073444;28;20145;-58
2023/07/09 01:55:03;;;;;;;17.33;7.68;;;19.60;99.90;;;;;;5073307;28;20093;-58
2023/07/09 01:57:35;;;;;;;10.60;6.95;;;19.60;99.90;;;;;;5073018;28;20029;-58
2023/07/09 02:00:10;;;;;;;15.60;6.95;;;19.50;99.90;;;;;;5073186;28;20070;-60
2023/07/09 02:02:38;;;;;;;14.30;7.50;;;19.50;99.90;;;;;;5073387;28;20372;-58
2023/07/09 02:05:05;;;;;;;12.90;7.15;;;19.50;99.90;;;;;;5073159;28;20044;-58
2023/07/09 02:07:30;;;;;;;15.35;7.95;;;19.40;99.90;;;;;;5073140;28;20399;-58
2023/07/09 02:09:57;;;;;;;16.63;8.63;;;19.30;99.90;;;;;;5072897;28;20020;-58
2023/07/09 02:12:22;;;;;;;15.85;7.45;;;19.30;99.90;;;;;;5073196;28;20094;-58
2023/07/09 02:14:48;;;;;;;18.67;7.15;;;19.30;99.90;;;;;;5073102;28;20052;-60
2023/07/09 02:17:14;;;;;;;13.82;7.72;;;19.30;99.90;;;;;;5073062;28;20027;-59
2023/07/09 02:19:40;;;;;;;12.77;8.45;;;19.20;99.90;;;;;;5071497;28;20484;-57
2023/07/09 02:22:06;;;;;;;13.48;7.65;;;19.20;99.90;;;;;;5072964;28;20060;-60
2023/07/09 02:24:32;;;;;;;12.77;7.35;;;19.20;99.90;;;;;;5072566;28;20024;-61
2023/07/09 02:27:00;;;;;;;19.45;7.63;;;19.20;99.90;;;;;;5072919;28;20525;-57
2023/07/09 02:29:28;;;;;;;18.40;7.85;;;19.20;99.90;;;;;;5072521;28;20024;-56
2023/07/09 02:31:56;;;;;;;14.75;7.40;;;19.10;99.90;;;;;;5072832;28;20028;-60
2023/07/09 02:34:26;;;;;;;18.52;8.20;;;19.10;99.90;;;;;;5072634;28;20393;-55
2023/07/09 02:36:53;;;;;;;14.63;7.97;;;19.10;99.90;;;;;;5072690;28;20078;-60
2023/07/09 02:39:19;;;;;;;12.65;7.20;;;19.10;99.90;;;;;;5072292;28;20391;-59
2023/07/09 02:41:45;;;;;;;15.13;6.55;;;19.00;99.90;;;;;;5072392;28;20704;-59
2023/07/09 02:44:11;;;;;;;15.30;7.63;;;19.00;99.90;;;;;;5071122;28;20055;-60
2023/07/09 02:46:37;;;;;;;13.25;7.50;;;19.00;99.90;;;;;;5072304;28;20021;-58
2023/07/09 02:49:06;;;;;;;16.15;8.07;;;19.00;99.90;;;;;;5072271;28;20039;-57
2023/07/09 02:51:33;;;;;;;15.10;7.28;;;19.00;99.90;;;;;;5072250;28;20060;-58
2023/07/09 02:54:01;;;;;;;16.45;7.60;;;18.90;99.90;;;;;;5072162;28;20040;-60
2023/07/09 02:56:27;;;;;;;17.35;7.70;;;19.00;99.90;;;;;;5072016;28;20040;-53
2023/07/09 02:58:53;;;;;;;11.90;7.57;;;18.90;99.90;;;;;;5072032;28;20025;-58
2023/07/09 03:01:24;;;;;;;15.57;7.50;;;18.90;99.90;;;;;;5072177;28;20487;-58
2023/07/09 03:03:57;;;;;;;17.00;7.97;;;18.90;99.90;;;;;;5072076;28;20025;-51
2023/07/09 03:06:24;;;;;;;20.33;7.55;;;18.80;99.90;;;;;;5071925;28;20394;-56
2023/07/09 03:08:51;;;;;;;16.08;8.07;;;18.80;99.90;;;;;;5071755;28;20013;-52
2023/07/09 03:11:17;;;;;;;15.55;7.00;;;18.80;99.90;;;;;;5072002;28;20074;-59
2023/07/09 03:13:43;;;;;;;18.60;8.18;;;18.80;99.90;;;;;;5071822;28;20437;-51
2023/07/09 03:16:09;;;;;;;16.67;8.38;;;18.80;99.90;;;;;;5071882;28;20534;-55
2023/07/09 03:18:34;;;;;;;15.20;7.63;;;18.80;99.90;;;;;;5071530;28;20032;-52
2023/07/09 03:21:00;;;;;;;15.02;7.43;;;18.80;99.90;;;;;;5071794;28;20082;-53
2023/07/09 03:23:26;;;;;;;16.55;8.15;;;18.80;99.90;;;;;;5071524;28;20032;-54
2023/07/09 03:25:52;;;;;;;15.15;7.88;;;18.80;99.90;;;;;;5071606;28;20032;-61
2023/07/09 03:28:17;;;;;;;15.43;8.18;;;18.70;99.90;;;;;;5071519;28;20136;-60
2023/07/09 03:30:45;;;;;;;17.83;7.65;;;18.80;99.90;;;;;;5071536;28;20036;-56
2023/07/09 03:33:11;;;;;;;13.93;7.47;;;18.80;99.90;;;;;;5071631;28;20028;-61
2023/07/09 03:35:38;;;;;;;19.65;7.88;;;18.80;99.90;;;;;;5071391;28;20021;-58
2023/07/09 03:38:04;;;;;;;16.10;7.75;;;18.80;99.90;;;;;;5071333;28;20020;-60
2023/07/09 03:40:30;;;;;;;13.93;8.18;;;18.80;99.90;;;;;;5071385;28;20073;-57
2023/07/09 03:42:55;;;;;;;23.05;8.60;;;18.80;99.90;;;;;;5071474;28;20441;-56
2023/07/09 03:45:21;;;;;;;18.63;8.13;;;18.80;99.90;;;;;;5071304;28;20093;-60
2023/07/09 03:47:46;;;;;;;12.80;7.82;;;18.80;99.90;;;;;;5071045;28;20024;-57
2023/07/09 03:50:12;;;;;;;18.65;7.30;;;18.80;99.90;;;;;;5071430;28;20334;-59
2023/07/09 03:52:38;;;;;;;15.55;7.85;;;18.80;99.90;;;;;;5071364;28;20035;-58
2023/07/09 03:55:04;;;;;;;14.52;6.80;;;18.80;99.90;;;;;;5071245;28;20025;-60
2023/07/09 03:57:30;;;;;;;22.02;8.05;;;18.80;99.90;;;;;;5071236;28;20016;-61
2023/07/09 03:59:56;;;;;;;14.20;7.35;;;18.80;99.90;;;;;;5071127;28;20056;-57
2023/07/09 04:02:21;;;;;;;16.88;8.25;;;18.80;99.90;;;;;;5071317;28;20029;-60
2023/07/09 04:04:47;;;;;;;15.50;8.23;;;18.80;99.90;;;;;;5070944;28;20090;-61
2023/07/09 04:07:13;;;;;;;16.42;6.65;;;18.80;99.90;;;;;;5070660;28;20039;-57
2023/07/09 04:09:38;;;;;;;17.98;7.15;;;18.80;99.90;;;;;;5070904;28;20032;-60
2023/07/09 04:12:04;;;;;;;18.70;8.00;;;18.90;99.90;;;;;;5071281;28;20031;-59
2023/07/09 04:14:30;;;;;;;14.15;7.35;;;18.90;99.90;;;;;;5071095;28;20043;-58
2023/07/09 04:16:55;;;;;;;16.25;7.18;;;18.90;99.90;;;;;;5071138;28;20104;-59
2023/07/09 04:19:21;;;;;;;13.43;6.60;;;18.90;99.90;;;;;;5070984;28;20060;-61
2023/07/09 04:21:46;;;;;;;13.27;6.95;;;18.90;99.90;;;;;;5071201;28;20028;-58
2023/07/09 04:24:13;;;;;;;19.55;7.10;;;19.00;99.90;;;;;;5070868;28;20041;-61
2023/07/09 04:26:39;;;;;;;12.57;7.15;;;19.00;99.90;;;;;;5070990;28;21064;-59
2023/07/09 04:29:05;;;;;;;23.50;7.57;;;19.10;99.90;;;;;;5070924;28;20516;-60
2023/07/09 04:31:31;;;;;;;15.73;7.07;;;19.10;99.90;;;;;;5070905;28;20392;-61
2023/07/09 04:33:57;;;;;;;15.02;7.63;;;19.10;99.90;;;;;;5070881;28;20043;-59
2023/07/09 04:36:22;;;;;;;12.70;6.45;;;19.20;99.90;;;;;;5070984;28;20147;-56
2023/07/09 04:38:48;;;;;;;13.82;6.80;;;19.20;99.90;;;;;;5070645;28;20025;-55
2023/07/09 04:41:14;;;;;;;17.45;7.38;;;19.30;99.90;;;;;;5070905;28;20031;-54
2023/07/09 04:43:39;;;;;;;14.75;7.18;;;19.30;99.90;;;;;;5070839;28;20082;-59
2023/07/09 04:46:05;;;;;;;14.80;7.22;;;19.40;99.90;;;;;;5070781;28;20364;-59
2023/07/09 04:48:30;;;;;;;14.23;7.40;;;19.40;99.90;;;;;;5070527;28;20107;-61
2023/07/09 04:50:56;;;;;;;15.60;7.38;;;19.40;99.90;;;;;;5070862;28;20029;-58
2023/07/09 04:53:23;;;;;;;18.25;7.25;;;19.40;99.90;;;;;;5070823;28;20032;-61
2023/07/09 04:55:49;;;;;;;16.67;7.00;;;19.50;99.90;;;;;;5070732;28;20032;-60
2023/07/09 04:58:15;;;;;;;15.45;6.57;;;19.50;99.90;;;;;;5070702;28;20462;-58
2023/07/09 05:00:42;;;;;;;15.52;6.75;;;19.60;99.90;;;;;;5070813;28;20039;-59
2023/07/09 05:03:08;;;;;;;12.40;6.65;;;19.60;99.90;;;;;;5070658;28;20107;-60
2023/07/09 05:05:33;;;;;;;11.27;6.50;;;19.70;99.90;;;;;;5070533;28;20127;-61
2023/07/09 05:07:59;;;;;;;10.93;6.68;;;19.70;99.90;;;;;;5070533;28;20024;-58
2023/07/09 05:10:24;;;;;;;11.30;6.22;;;19.80;99.90;;;;;;5070740;28;20023;-59
2023/07/09 05:12:52;;;;;;;12.35;6.32;;;19.90;99.90;;;;;;5070690;28;20066;-60
2023/07/09 05:15:19;;;;;;;12.02;6.22;;;19.90;99.90;;;;;;5070644;28;20029;-59
2023/07/09 05:17:45;;;;;;;11.57;5.90;;;19.90;99.90;;;;;;5070383;28;20075;-59
2023/07/09 05:20:12;;;;;;;12.40;6.40;;;20.00;99.90;;;;;;5073103;28;20028;-56
2023/07/09 05:22:37;;;;;;;10.75;6.13;;;20.10;99.90;;;;;;5074022;28;20020;-54
2023/07/09 05:25:03;;;;;;;15.85;6.28;;;20.20;99.90;;;;;;5073793;28;20077;-61
2023/07/09 05:27:29;;;;;;;13.20;5.95;;;20.20;99.90;;;;;;5065721;28;20103;-61
2023/07/09 05:29:54;;;;;;;12.45;5.60;;;20.30;99.90;;;;;;5073720;28;20039;-59
2023/07/09 05:32:20;;;;;;;15.95;7.13;;;20.30;99.90;;;;;;5073988;28;20035;-59
2023/07/09 05:34:46;;;;;;;13.45;5.00;;;20.50;99.90;;;;;;5072436;28;20043;-61
2023/07/09 05:37:11;;;;;;;13.60;5.88;;;20.50;99.90;;;;;;5073852;28;20108;-59
2023/07/09 05:39:37;;;;;;;10.57;6.03;;;20.60;99.90;;;;;;5073776;28;20107;-62
2023/07/09 05:42:02;;;;;;;9.48;5.40;;;20.60;99.90;;;;;;5073762;28;20037;-60
2023/07/09 05:44:28;;;;;;;12.73;5.75;;;20.70;99.90;;;;;;5073382;28;20060;-59
2023/07/09 05:46:53;;;;;;;11.85;5.72;;;20.80;99.90;;;;;;5072307;28;20048;-61
2023/07/09 05:49:19;;;;;;;12.57;6.45;;;20.90;99.90;;;;;;5073476;28;20095;-56
2023/07/09 05:51:45;;;;;;;15.35;6.22;;;21.00;99.90;;;;;;5073691;28;20090;-55
2023/07/09 05:54:11;;;;;;;11.57;5.97;;;21.00;99.90;;;;;;5073563;28;20025;-60
2023/07/09 05:56:36;;;;;;;11.07;5.70;;;21.10;99.90;;;;;;5073584;28;20099;-60
2023/07/09 05:59:02;;;;;;;10.40;5.18;;;21.10;99.90;;;;;;5073386;28;20461;-58
2023/07/09 06:01:27;;;;;;;11.13;5.85;;;21.20;99.90;;;;;;5073271;28;20031;-56
2023/07/09 06:03:54;;;;;;;13.18;5.47;;;21.30;99.90;;;;;;5073207;28;20032;-53
2023/07/09 06:06:20;;;;;;;13.02;5.65;;;21.40;99.90;;;;;;5073366;28;20035;-58
2023/07/09 06:08:46;;;;;;;15.60;4.93;;;21.50;99.90;;;;;;5073043;28;20059;-60
2023/07/09 06:11:12;;;;;;;9.70;5.63;;;21.60;99.90;;;;;;5073277;28;20016;-60
2023/07/09 06:13:38;;;;;;;9.50;5.50;;;21.70;99.90;;;;;;5073086;28;20024;-60
2023/07/09 06:16:03;;;;;;;12.02;5.50;;;21.70;99.90;;;;;;5073308;28;20106;-60
2023/07/09 06:18:29;;;;;;;10.35;5.60;;;21.80;99.90;;;;;;5072930;28;20035;-58
2023/07/09 06:20:58;;;;;;;10.00;5.25;;;21.90;99.90;;;;;;5073057;28;20021;-60
2023/07/09 06:23:24;;;;;;;13.05;4.78;;;21.90;99.90;;;;;;5072989;28;20056;-59
2023/07/09 06:25:50;;;;;;;11.75;5.68;;;22.00;99.90;;;;;;5072798;28;20052;-58
2023/07/09 06:28:18;;;;;;;10.57;5.22;;;22.10;99.90;;;;;;5072588;28;20051;-61
2023/07/09 06:30:45;;;;;;;11.13;5.72;;;22.10;99.90;;;;;;5072394;28;20091;-58
2023/07/09 06:33:12;;;;;;;9.68;5.65;;;22.30;99.90;;;;;;5072775;28;20023;-60
2023/07/09 06:35:39;;;;;;;11.13;5.72;;;22.40;99.90;;;;;;5072600;28;20020;-59
2023/07/09 06:38:05;;;;;;;10.02;4.72;;;22.40;99.90;;;;;;5072546;28;20071;-61
2023/07/09 06:40:31;;;;;;;13.27;5.70;;;22.50;99.90;;;;;;5072596;28;20024;-61
2023/07/09 06:42:57;;;;;;;9.75;5.78;;;22.60;99.90;;;;;;5072272;28;20052;-60
2023/07/09 06:45:23;;;;;;;11.48;5.43;;;22.70;99.90;;;;;;5072388;28;20028;-60
2023/07/09 06:47:49;;;;;;;10.27;5.57;;;22.70;99.90;;;;;;5072264;28;20035;-57
2023/07/09 06:50:15;;;;;;;13.55;5.80;;;22.80;99.90;;;;;;5072416;28;20029;-58
2023/07/09 06:52:40;;;;;;;13.70;6.00;;;22.90;99.90;;;;;;5072511;28;20047;-56
2023/07/09 06:55:07;;;;;;;10.55;4.82;;;23.00;99.90;;;;;;5072234;28;20040;-60
2023/07/09 06:57:32;;;;;;;9.35;4.68;;;23.10;99.90;;;;;;5072066;28;20436;-54
2023/07/09 06:59:58;;;;;;;17.42;6.03;;;23.20;99.90;;;;;;5072139;28;20115;-57
2023/07/09 07:02:24;;;;;;;13.95;5.30;;;23.30;99.90;;;;;;5072348;28;20020;-58
2023/07/09 07:04:49;;;;;;;14.88;5.47;;;23.40;99.90;;;;;;5071932;28;20501;-57
2023/07/09 07:07:15;;;;;;;11.50;5.03;;;23.60;99.90;;;;;;5072170;28;20021;-55
2023/07/09 07:09:40;;;;;;;7.72;5.13;;;23.60;99.90;;;;;;5071936;28;20024;-58
2023/07/09 07:12:07;;;;;;;8.73;5.05;;;23.70;99.90;;;;;;5072076;28;20020;-58
2023/07/09 07:14:32;;;;;;;13.55;4.90;;;23.70;99.90;;;;;;5071915;28;20031;-57
2023/07/09 07:16:58;;;;;;;11.82;5.35;;;23.80;99.90;;;;;;5072064;28;20303;-56
2023/07/09 07:19:23;;;;;;;14.85;5.70;;;23.90;99.90;;;;;;5071778;28;20052;-58
2023/07/09 07:21:49;;;;;;;10.20;5.65;;;24.00;99.90;;;;;;5071990;28;20041;-58
2023/07/09 07:24:15;;;;;;;10.63;4.93;;;24.10;99.90;;;;;;5071876;28;20039;-53
2023/07/09 07:26:40;;;;;;;11.05;4.78;;;24.20;99.90;;;;;;5071567;28;20036;-54
2023/07/09 07:29:06;;;;;;;12.43;4.43;;;24.20;99.90;;;;;;5071563;28;20043;-57
2023/07/09 07:31:31;;;;;;;9.57;4.75;;;24.40;99.90;;;;;;5071555;28;20025;-57
2023/07/09 07:33:56;;;;;;;7.72;4.93;;;24.50;99.90;;;;;;5071515;28;20514;-58
2023/07/09 07:36:22;;;;;;;11.38;5.55;;;24.60;99.90;;;;;;5071548;28;20032;-60
2023/07/09 07:38:47;;;;;;;12.23;5.35;;;24.70;99.90;;;;;;5071367;28;20043;-58
2023/07/09 07:41:13;;;;;;;11.45;4.53;;;24.80;99.90;;;;;;5070853;28;20406;-57
2023/07/09 07:43:39;;;;;;;7.45;4.55;;;24.90;99.90;;;;;;5071169;28;20029;-60
2023/07/09 07:46:05;;;;;;;11.75;5.20;;;25.00;99.90;;;;;;5071543;28;20502;-56
2023/07/09 07:48:31;;;;;;;9.90;4.97;;;25.10;99.90;;;;;;5071235;28;20130;-58
2023/07/09 07:51:01;;;;;;;10.02;5.35;;;25.20;99.90;;;;;;5071459;28;20517;-58
2023/07/09 07:53:29;;;;;;;8.18;4.97;;;25.20;99.90;;;;;;5071416;28;20020;-59
2023/07/09 07:55:56;;;;;;;10.15;4.55;;;25.50;99.90;;;;;;5071123;28;20017;-58
2023/07/09 07:58:22;;;;;;;9.02;4.63;;;25.60;99.90;;;;;;5071419;28;20024;-58
2023/07/09 08:00:47;;;;;;;9.68;5.28;;;25.70;99.90;;;;;;5071257;28;20060;-59
2023/07/09 08:03:13;;;;;;;9.35;5.35;;;25.70;99.90;;;;;;5071292;28;20549;-57
2023/07/09 08:05:38;;;;;;;12.55;5.47;;;25.80;99.90;;;;;;5071112;28;20032;-58
2023/07/09 08:08:04;;;;;;;11.35;5.18;;;25.90;99.90;;;;;;5070951;28;20108;-56
2023/07/09 08:10:30;;;;;;;12.45;4.95;;;26.10;99.90;;;;;;5070978;28;20112;-58
2023/07/09 08:12:57;;;;;;;12.30;5.00;;;26.20;99.90;;;;;;5071201;28;20465;-55
2023/07/09 08:15:25;;;;;;;12.43;5.88;;;26.30;99.90;;;;;;5071068;28;20042;-58
2023/07/09 08:17:51;;;;;;;9.05;5.07;;;26.50;99.90;;;;;;5070953;28;20382;-57
2023/07/09 08:20:17;;;;;;;9.15;4.72;;;26.50;99.90;;;;;;5071155;28;20039;-60
2023/07/09 08:22:43;;;;;;;7.68;5.20;;;26.60;99.90;;;;;;5071094;28;20036;-58
2023/07/09 08:25:09;;;;;;;8.35;5.13;;;26.70;99.90;;;;;;5070787;28;20123;-60
2023/07/09 08:27:34;;;;;;;10.45;4.85;;;26.80;99.90;;;;;;5070906;28;20536;-60
2023/07/09 08:30:00;;;;;;;11.18;4.70;;;26.90;99.90;;;;;;5071043;28;20104;-60
2023/07/09 08:32:26;;;;;;;9.27;5.13;;;27.00;99.90;;;;;;5071026;28;20486;-59
2023/07/09 08:34:51;;;;;;;12.27;4.75;;;27.20;99.90;;;;;;5070854;28;20032;-57
2023/07/09 08:37:17;;;;;;;10.48;5.30;;;27.30;99.90;;;;;;5070969;28;20083;-59
2023/07/09 08:39:42;;;;;;;18.90;4.32;;;27.40;99.90;;;;;;5070522;28;20037;-60
2023/07/09 08:42:13;;;;;;;11.48;5.32;;;27.60;99.90;;;;;;5070898;28;20032;-57
2023/07/09 08:44:49;;;;;;;13.93;5.13;;;27.70;99.90;;;;;;5070840;28;20028;-58
2023/07/09 08:47:52;;;;;;;11.10;5.05;;;27.80;99.90;;;;;;5070754;28;20020;-60
2023/07/09 08:50:24;;;;;;;6.93;4.53;;;27.90;99.90;;;;;;5070922;28;20116;-59
2023/07/09 08:52:52;;;;;;;11.35;5.60;;;28.00;99.90;;;;;;5071212;28;20024;-57
2023/07/09 08:55:20;;;;;;;12.25;5.15;;;28.20;99.90;;;;;;5074554;28;20510;-60
2023/07/09 08:58:09;;;;;;;10.40;5.47;;;28.40;99.90;;;;;;5074405;28;20036;-60
2023/07/09 09:00:53;;;;;;;10.48;5.25;;;28.50;99.90;;;;;;5074349;28;20028;-60
2023/07/09 09:04:17;;;;;;;11.23;5.72;;;28.60;99.90;;;;;;5074521;28;20020;-56
2023/07/09 09:06:47;;;;;;;12.73;4.80;;;28.80;99.90;;;;;;5071451;28;20028;-58
2023/07/09 09:09:45;;;;;;;9.88;5.18;;;28.90;99.90;;;;;;5071906;28;20036;-58
2023/07/09 09:12:23;;;;;;;10.40;5.22;;;29.10;99.90;;;;;;5073934;28;20154;-58
2023/07/09 09:15:16;;;;;;;12.80;5.05;;;29.20;99.90;;;;;;5074081;28;20048;-59
2023/07/09 09:17:42;;;;;;;13.05;5.47;;;29.30;99.90;;;;;;5073534;28;20393;-56
2023/07/09 09:20:17;;;;;;;8.20;4.80;;;29.40;99.90;;;;;;5073919;28;20501;-57
2023/07/09 09:22:58;;;;;;;10.55;5.70;;;29.40;99.90;;;;;;5074111;28;20043;-59
2023/07/09 09:25:28;;;;;;;11.02;4.82;;;29.60;99.90;;;;;;5073782;28;20027;-54
2023/07/09 09:27:54;;;;;;;9.20;5.10;;;29.70;99.90;;;;;;5074231;28;20435;-55
2023/07/09 09:30:23;;;;;;;12.10;5.40;;;29.80;99.90;;;;;;5073981;28;20097;-60
2023/07/09 09:32:57;;;;;;;8.75;5.15;;;30.00;99.90;;;;;;5073817;28;20479;-58
2023/07/09 09:35:40;;;;;;;9.68;5.35;;;30.10;99.90;;;;;;5073790;28;20068;-60
2023/07/09 09:38:17;;;;;;;10.20;5.28;;;30.40;99.90;;;;;;5073498;28;20028;-58
2023/07/09 09:40:43;;;;;;;15.35;5.20;;;30.50;99.90;;;;;;5073783;28;20032;-58
2023/07/09 09:43:16;;;;;;;9.93;5.30;;;30.70;99.90;;;;;;5073826;28;20039;-59
2023/07/09 09:45:44;;;;;;;8.50;4.82;;;30.90;99.90;;;;;;5073622;28;20447;-60
2023/07/09 09:48:20;;;;;;;10.05;5.00;;;31.00;99.90;;;;;;5073381;28;20025;-58
2023/07/09 09:50:47;;;;;;;9.32;5.50;;;31.10;99.90;;;;;;5073545;28;20027;-59
2023/07/09 09:53:24;;;;;;;8.68;4.75;;;31.30;99.90;;;;;;5073595;28;20429;-59
2023/07/09 09:55:53;;;;;;;10.18;4.70;;;31.50;99.90;;;;;;5073461;28;20394;-57
2023/07/09 09:58:19;;;;;;;14.93;5.07;;;31.60;99.90;;;;;;5073287;28;20017;-60
2023/07/09 10:00:52;;;;;;;8.00;5.03;;;31.70;99.90;;;;;;5073165;28;20047;-60
2023/07/09 10:03:19;;;;;;;7.33;4.70;;;31.90;99.90;;;;;;5073607;28;20025;-59
2023/07/09 10:05:53;;;;;;;7.78;4.57;;;32.00;99.90;;;;;;5072234;28;20056;-59
2023/07/09 10:08:43;;;;;;;11.27;5.03;;;32.30;99.90;;;;;;5073116;28;20048;-61
2023/07/09 10:11:32;;;;;;;9.15;5.35;;;32.50;99.90;;;;;;5073160;28;20017;-59
2023/07/09 10:14:21;;;;;;;10.20;5.13;;;32.60;99.90;;;;;;5073044;28;20031;-59
2023/07/09 10:16:50;;;;;;;14.63;6.03;;;32.80;99.90;;;;;;5072826;28;20028;-60
2023/07/09 10:19:33;;;;;;;14.63;5.85;;;32.90;99.90;;;;;;5073008;28;20028;-59
2023/07/09 10:22:12;;;;;;;12.32;4.90;;;33.10;99.90;;;;;;5073144;28;20036;-60
2023/07/09 10:25:14;;;;;;;14.00;5.18;;;33.20;99.90;;;;;;5072627;28;20029;-60
2023/07/09 10:28:04;;;;;;;8.57;5.35;;;33.50;99.90;;;;;;5072783;28;20013;-56
2023/07/09 10:30:41;;;;;;;10.90;4.95;;;33.90;99.90;;;;;;5072616;28;20075;-58
2023/07/09 10:33:13;;;;;;;11.73;5.10;;;34.00;99.90;;;;;;5073041;28;20485;-61
2023/07/09 10:35:54;;;;;;;8.82;6.20;;;34.20;99.90;;;;;;5072612;28;20038;-58
2023/07/09 10:38:38;;;;;;;14.07;5.00;;;34.40;99.20;;;;;;5072393;28;20024;-59
2023/07/09 10:41:09;;;;;;;10.15;4.25;;;34.20;99.90;;;;;;5072563;28;20024;-57
2023/07/09 10:43:49;;;;;;;8.70;4.70;;;34.30;99.40;;;;;;5072453;28;20487;-59
2023/07/09 10:46:25;;;;;;;10.43;4.50;;;34.60;98.10;;;;;;5072489;28;20027;-58
2023/07/09 10:48:52;;;;;;;7.20;5.55;;;34.80;96.20;;;;;;5070818;28;20020;-58
2023/07/09 10:51:21;;;;;;;9.23;4.55;;;34.90;98.40;;;;;;5072484;28;20024;-57
2023/07/09 10:54:10;;;;;;;11.63;4.93;;;35.20;97.80;;;;;;5072182;28;20176;-60
2023/07/09 10:56:36;;;;;;;11.63;4.80;;;35.20;93.80;;;;;;5071671;28;20032;-57
2023/07/09 10:59:23;;;;;;;7.43;4.47;;;35.10;93.40;;;;;;5072406;28;20024;-61
2023/07/09 11:01:55;;;;;;;8.65;4.57;;;35.20;95.70;;;;;;5073021;28;20525;-61
2023/07/09 11:04:41;;;;;;;13.27;4.60;;;35.50;94.10;;;;;;5072220;28;20032;-61
2023/07/09 11:07:12;;;;;;;14.07;4.28;;;35.80;94.30;;;;;;5072101;28;20012;-58
2023/07/09 11:09:45;;;;;;;11.52;4.53;;;35.90;91.30;;;;;;5071751;28;20498;-58
2023/07/09 11:12:30;;;;;;;8.77;5.40;;;35.90;90.60;;;;;;5072471;28;20024;-56
2023/07/09 11:15:05;;;;;;;8.75;4.15;;;35.90;90.30;;;;;;5071827;28;20265;-58
2023/07/09 11:17:30;;;;;;;9.95;4.32;;;36.10;92.90;;;;;;5071813;28;20475;-58
2023/07/09 11:19:59;;;;;;;10.23;4.90;;;35.90;90.10;;;;;;5070336;28;20145;-58
2023/07/09 11:22:36;;;;;;;13.27;4.93;;;36.10;90.90;;;;;;5071953;28;20028;-58
2023/07/09 11:25:12;;;;;;;8.60;4.10;;;36.20;92.30;;;;;;5071621;28;20491;-61
2023/07/09 11:27:56;;;;;;;9.77;4.75;;;36.00;89.00;;;;;;5071577;28;20210;-58
2023/07/09 11:30:26;;;;;;;;;;;36.10;87.20;;;;;;5072080;28;20051;-60
2023/07/09 11:33:01;;;;;;;8.50;4.78;;;36.10;87.20;;;;;;5071620;28;19965;-58
2023/07/09 11:35:29;;;;;;;8.20;4.82;;;36.20;86.90;;;;;;5071542;28;20483;-60
2023/07/09 11:37:58;;;;;;;8.27;4.57;;;36.20;87.60;;;;;;5071456;28;20027;-59
2023/07/09 11:40:24;;;;;;;7.55;4.00;;;36.40;85.60;;;;;;5071577;28;20099;-59
2023/07/09 11:42:58;;;;;;;7.82;3.90;;;36.70;81.50;;;;;;5071373;28;20068;-57
2023/07/09 11:45:30;;;;;;;6.32;3.67;;;36.90;76.50;;;;;;5071519;28;20045;-60
2023/07/09 11:48:14;;;;;;;11.73;3.33;;;37.00;69.00;;;;;;5071223;28;20024;-54
2023/07/09 11:50:46;;;;;;;7.55;3.65;;;37.10;69.30;;;;;;5071421;28;20520;-58
2023/07/09 11:53:22;;;;;;;6.18;3.63;;;37.10;68.60;;;;;;5071398;28;20032;-55
2023/07/09 11:55:47;;;;;;;9.40;3.25;;;36.90;64.50;;;;;;5071151;28;20120;-61
2023/07/09 11:58:18;;;;;;;6.20;3.35;;;36.90;63.60;;;;;;5071280;28;20113;-55
2023/07/09 12:00:50;;;;;;;7.40;3.72;;;36.80;61.40;;;;;;5071305;28;20089;-53
2023/07/09 12:03:29;;;;;;;7.40;3.90;;;37.10;62.10;;;;;;5071402;28;20028;-60
2023/07/09 12:06:00;;;;;;;10.00;3.53;;;37.10;59.20;;;;;;5071159;28;20086;-56
2023/07/09 12:08:34;;;;;;;4.53;3.08;;;37.00;60.10;;;;;;5071060;28;20019;-62
2023/07/09 12:11:00;;;;;;;5.75;3.45;;;36.90;61.30;;;;;;5071355;28;20049;-57
2023/07/09 12:13:26;;;;;;;9.73;3.50;;;36.70;59.40;;;;;;5071199;28;20113;-56
2023/07/09 12:15:51;;;;;;;5.95;3.30;;;36.40;59.40;;;;;;5071066;28;20107;-56
2023/07/09 12:18:17;;;;;;;6.63;3.58;;;36.20;59.10;;;;;;5070853;28;20055;-58
2023/07/09 12:20:49;;;;;;;8.85;3.67;;;35.80;59.10;;;;;;5071132;28;20437;-60
2023/07/09 12:23:31;;;;;;;7.65;3.80;;;35.70;59.60;;;;;;5071270;28;20509;-57
2023/07/09 12:26:01;;;;;;;6.90;3.60;;;35.80;60.40;;;;;;5071005;28;20086;-60
2023/07/09 12:28:28;;;;;;;9.35;3.45;;;35.60;59.90;;;;;;5072372;28;20533;-59
2023/07/09 12:30:54;;;;;;;11.15;3.95;;;35.60;61.70;;;;;;5074908;28;20035;-61
2023/07/09 12:33:28;;;;;;;5.80;3.75;;;35.60;60.70;;;;;;5075180;28;20024;-59
2023/07/09 12:35:59;;;;;;;6.78;3.90;;;35.40;62.70;;;;;;5075173;28;20078;-59
2023/07/09 12:38:31;;;;;;;9.07;4.93;;;35.40;62.80;;;;;;5074773;28;20032;-58
2023/07/09 12:41:00;;;;;;;6.53;3.55;;;35.30;67.10;;;;;;5074852;28;20025;-57
2023/07/09 12:43:30;;;;;;;6.70;3.53;;;35.50;68.40;;;;;;5074791;28;20036;-57
2023/07/09 12:45:58;;;;;;;9.05;3.58;;;35.60;68.50;;;;;;5074807;28;20111;-57
2023/07/09 12:48:27;;;;;;;9.02;3.85;;;35.80;64.70;;;;;;5074693;28;20097;-59
2023/07/09 12:50:57;;;;;;;6.78;3.50;;;35.90;61.90;;;;;;5074660;28;20440;-60
2023/07/09 12:53:27;;;;;;;14.60;4.03;;;35.90;62.60;;;;;;5074697;28;20687;-60